Погода Прусиничина неделю

Витебская область, Белоруссия

24 - 30 июля
  • 24июля
    Сегодня
    +14°
    +26°
    Небольшая облачность
    ВремяПогодаТемператураВлажностьДавлениеВетер, м/сВероятность осадков
    00:00Ясно и безоблачно+18°C85 %746 мм2.2 м/с2 %
    03:00Ясно и безоблачно+17°C87 %745 мм1.8 м/с2 %
    06:00Ясно и безоблачно+16°C87 %745 мм1.5 м/с2 %
    09:00Ясно и безоблачно+21°C75 %746 мм1.1 м/с2 %
    12:00Практически безоблачно+24°C55 %745 мм1.7 м/с5 %
    15:00Небольшая облачность+25°C52 %745 мм2.3 м/с12 %
    18:00Небольшая облачность+25°C57 %744 мм2.6 м/с15 %
    21:00Практически безоблачно+21°C78 %744 мм0.7 м/с2 %
  • 25июля
    Четверг
    +16°
    +27°
    Облачно с прояснениями
    ВремяПогодаТемператураВлажностьДавлениеВетер, м/сВероятность осадков
    00:00Небольшая облачность+19°C84 %744 мм1.7 м/с2 %
    03:00Ясно и безоблачно+16°C89 %744 мм1.9 м/с2 %
    06:00Ясно и безоблачно+15°C90 %743 мм1.8 м/с2 %
    09:00Ясно и безоблачно+21°C69 %744 мм0.8 м/с2 %
    12:00Практически безоблачно+25°C41 %743 мм2.2 м/с3 %
    15:00Облачно с прояснениями+26°C39 %743 мм2.1 м/с2 %
    18:00Небольшая облачность+26°C40 %742 мм1.0 м/с1 %
    21:00Ясно и безоблачно+22°C64 %743 мм0.3 м/с2 %
  • 26июля
    Пятница
    +15°
    +27°
    Ясно и безоблачно
    ВремяПогодаТемператураВлажностьДавлениеВетер, м/сВероятность осадков
    00:00Ясно и безоблачно+19°C74 %743 мм2.1 м/с2 %
    03:00Облачно с прояснениями+18°C75 %743 мм2.0 м/с2 %
    06:00Небольшая облачность+17°C83 %743 мм1.4 м/с2 %
    09:00Ясно и безоблачно+22°C65 %744 мм0.7 м/с2 %
    12:00Практически безоблачно+25°C45 %745 мм1.4 м/с4 %
    15:00Ясно и безоблачно+26°C43 %745 мм1.0 м/с14 %
    18:00Ясно и безоблачно+26°C45 %745 мм1.0 м/с18 %
    21:00Ясно и безоблачно+23°C62 %746 мм0.4 м/с6 %
  • 27июля
    Суббота
    +18°
    +28°
    Практически безоблачно
    ВремяПогодаТемператураВлажностьДавлениеВетер, м/сВероятность осадков
    00:00Ясно и безоблачно+19°C82 %747 мм2.0 м/с2 %
    03:00Ясно и безоблачно+17°C87 %747 мм1.8 м/с2 %
    06:00Практически безоблачно+17°C86 %747 мм2.2 м/с2 %
    09:00Практически безоблачно+23°C66 %748 мм0.9 м/с3 %
    12:00Практически безоблачно+26°C45 %749 мм2.1 м/с9 %
    15:00Практически безоблачно+27°C42 %748 мм2.5 м/с24 %
    18:00Облачно с прояснениями+27°C44 %748 мм2.1 м/с35 %
    21:00Практически безоблачно+23°C68 %748 мм0.5 м/с14 %
  • 28июля
    Воскресенье
    +17°
    +28°
    Облачно с прояснениями
    ВремяПогодаТемператураВлажностьДавлениеВетер, м/сВероятность осадков
    00:00Небольшая облачность+20°C76 %748 мм1.9 м/с2 %
    03:00Облачно с прояснениями+19°C78 %748 мм2.2 м/с2 %
    06:00Небольшая облачность+19°C79 %748 мм2.4 м/с2 %
    09:00Облачно с прояснениями+23°C69 %748 мм1.0 м/с3 %
    12:00Небольшая облачность+26°C56 %748 мм4.2 м/с13 %
    15:00Облачно с прояснениями+27°C52 %747 мм4.1 м/с31 %
    18:00Облачно с прояснениями+27°C48 %746 мм3.7 м/с33 %
    21:00Ясно и безоблачно+23°C60 %746 мм1.0 м/с27 %
Мы используем cookies
Соглашаюсь